Time;durP1;ratioP1;P1;durP2;ratioP2;P2;SDS_P1;SDS_P2;PMS_P1;PMS_P2;Temp;Humidity;BMP_temperature;BMP_pressure;BME280_temperature;BME280_humidity;BME280_pressure;Samples;Min_cycle;Max_cycle;Signal;HPM_P1;HPM_P2
2023/07/12 00:00:30;;;;;;;27.08;6.10;;;;;;;;;;4975909;28;20061;-70
2023/07/12 00:02:56;;;;;;;24.08;6.43;;;;;;;;;;4964979;28;20498;-70
2023/07/12 00:05:26;;;;;;;23.10;6.43;;;;;;;;;;4976235;28;20121;-70
2023/07/12 00:07:51;;;;;;;22.20;6.05;;;;;;;;;;4974450;28;20093;-70
2023/07/12 00:10:31;;;;;;;27.40;7.10;;;;;;;;;;4974842;28;20471;-70
2023/07/12 00:12:56;;;;;;;17.98;5.57;;;;;;;;;;4966844;28;20038;-70
2023/07/12 00:15:30;;;;;;;21.02;6.22;;;;;;;;;;4974363;28;20034;-70
2023/07/12 00:17:56;;;;;;;19.88;5.85;;;;;;;;;;4975090;28;20049;-70
2023/07/12 00:20:39;;;;;;;24.33;5.80;;;;;;;;;;4974263;28;20035;-70
2023/07/12 00:23:05;;;;;;;30.10;6.57;;;;;;;;;;4975154;28;20070;-70
2023/07/12 00:25:32;;;;;;;16.20;5.05;;;;;;;;;;4975002;28;20082;-70
2023/07/12 00:27:58;;;;;;;24.83;5.57;;;;;;;;;;4975137;28;20043;-70
2023/07/12 00:30:26;;;;;;;24.95;5.60;;;;;;;;;;4974883;28;20034;-70
2023/07/12 00:32:54;;;;;;;17.67;5.25;;;;;;;;;;5006331;28;20046;-70
2023/07/12 00:35:22;;;;;;;22.20;4.90;;;;;;;;;;4975003;28;20022;-70
2023/07/12 00:37:49;;;;;;;15.32;5.22;;;;;;;;;;4974280;28;20121;-70
2023/07/12 00:40:36;;;;;;;12.35;4.85;;;;;;;;;;4974713;28;20391;-70
2023/07/12 00:43:24;;;;;;;18.33;5.05;;;;;;;;;;4963735;28;20045;-71
2023/07/12 00:45:51;;;;;;;19.73;5.30;;;;;;;;;;4964876;28;20141;-70
2023/07/12 00:48:17;;;;;;;17.42;5.13;;;;;;;;;;4973954;28;20081;-70
2023/07/12 00:50:43;;;;;;;17.77;5.20;;;;;;;;;;4974029;28;20030;-70
2023/07/12 00:53:30;;;;;;;17.42;4.93;;;;;;;;;;4966113;28;20097;-70
2023/07/12 00:56:06;;;;;;;12.27;4.65;;;;;;;;;;4968495;28;20049;-70
2023/07/12 00:58:36;;;;;;;16.45;4.57;;;;;;;;;;5003083;28;20050;-70
2023/07/12 01:01:02;;;;;;;11.70;4.80;;;;;;;;;;4972897;28;20050;-70
2023/07/12 01:03:31;;;;;;;14.98;5.10;;;;;;;;;;4974349;28;20043;-70
2023/07/12 01:05:56;;;;;;;18.45;5.55;;;;;;;;;;4973738;28;20031;-70
2023/07/12 01:08:22;;;;;;;16.17;5.32;;;;;;;;;;4974387;28;20065;-70
2023/07/12 01:10:47;;;;;;;14.45;4.63;;;;;;;;;;5005261;28;20037;-70
2023/07/12 01:13:13;;;;;;;12.75;4.90;;;;;;;;;;4974260;28;20456;-70
2023/07/12 01:15:38;;;;;;;11.82;4.57;;;;;;;;;;4974685;28;20121;-70
2023/07/12 01:18:04;;;;;;;11.27;4.50;;;;;;;;;;4966145;28;20035;-70
2023/07/12 01:20:38;;;;;;;12.82;4.32;;;;;;;;;;4971632;28;20057;-70
2023/07/12 01:23:03;;;;;;;;;;;;;;;;;;4973367;28;20479;-70
2023/07/12 01:25:47;;;;;;;8.23;3.90;;;;;;;;;;4973944;28;19929;-70
2023/07/12 01:28:12;;;;;;;13.70;4.80;;;;;;;;;;4973923;28;20050;-70
2023/07/12 01:30:39;;;;;;;10.32;4.53;;;;;;;;;;4972811;28;20027;-70
2023/07/12 01:33:05;;;;;;;12.95;4.47;;;;;;;;;;4974053;28;20042;-70
2023/07/12 01:35:31;;;;;;;13.27;4.68;;;;;;;;;;4974629;28;20170;-70
2023/07/12 01:37:56;;;;;;;26.02;5.53;;;;;;;;;;4972560;28;20054;-70
2023/07/12 01:40:22;;;;;;;18.58;4.45;;;;;;;;;;4974226;28;20046;-70
2023/07/12 01:42:47;;;;;;;12.13;4.65;;;;;;;;;;4974442;28;20046;-70
2023/07/12 01:45:12;;;;;;;17.40;4.53;;;;;;;;;;4973571;28;20085;-70
2023/07/12 01:47:39;;;;;;;9.82;4.18;;;;;;;;;;4974496;28;20043;-70
2023/07/12 01:50:04;;;;;;;13.48;4.20;;;;;;;;;;4973976;28;20055;-70
2023/07/12 01:52:30;;;;;;;13.90;4.32;;;;;;;;;;4973935;28;20109;-70
2023/07/12 01:54:55;;;;;;;23.65;5.22;;;;;;;;;;4973903;28;20066;-70
2023/07/12 01:57:20;;;;;;;12.10;4.47;;;;;;;;;;4973469;28;20043;-70
2023/07/12 01:59:46;;;;;;;13.90;4.63;;;;;;;;;;4973367;28;20043;-70
2023/07/12 02:02:11;;;;;;;11.75;4.60;;;;;;;;;;4973332;28;20038;-70
2023/07/12 02:04:36;;;;;;;14.15;5.28;;;;;;;;;;4973763;28;20043;-70
2023/07/12 02:07:03;;;;;;;11.40;4.63;;;;;;;;;;4974007;28;20055;-71
2023/07/12 02:09:33;;;;;;;15.88;4.25;;;;;;;;;;4973725;28;20042;-70
2023/07/12 02:11:58;;;;;;;11.75;4.18;;;;;;;;;;4974103;28;20089;-70
2023/07/12 02:14:23;;;;;;;12.38;4.25;;;;;;;;;;4973650;28;20106;-70
2023/07/12 02:16:49;;;;;;;10.82;3.80;;;;;;;;;;4974242;28;20129;-70
2023/07/12 02:19:14;;;;;;;15.20;3.95;;;;;;;;;;4973009;28;20039;-70
2023/07/12 02:21:40;;;;;;;10.85;4.30;;;;;;;;;;4974069;28;20047;-70
2023/07/12 02:24:05;;;;;;;16.38;4.68;;;;;;;;;;4973630;28;20051;-70
2023/07/12 02:26:31;;;;;;;11.90;4.22;;;;;;;;;;4973502;28;20031;-70
2023/07/12 02:28:56;;;;;;;11.48;4.25;;;;;;;;;;4973350;28;20390;-70
2023/07/12 02:31:23;;;;;;;18.20;4.00;;;;;;;;;;4973322;28;20475;-70
2023/07/12 02:33:49;;;;;;;16.83;4.60;;;;;;;;;;4972452;28;20034;-70
2023/07/12 02:36:15;;;;;;;14.35;4.18;;;;;;;;;;4973882;28;20443;-70
2023/07/12 02:38:41;;;;;;;16.15;4.22;;;;;;;;;;4973120;28;20069;-70
2023/07/12 02:41:07;;;;;;;12.52;3.95;;;;;;;;;;4975298;28;20066;-70
2023/07/12 02:43:32;;;;;;;11.63;3.97;;;;;;;;;;4977085;28;20089;-70
2023/07/12 02:45:58;;;;;;;12.60;3.67;;;;;;;;;;4977484;28;20472;-70
2023/07/12 02:48:23;;;;;;;19.02;3.85;;;;;;;;;;4975527;28;20062;-70
2023/07/12 02:50:48;;;;;;;11.93;3.83;;;;;;;;;;4976954;28;20054;-70
2023/07/12 02:53:15;;;;;;;12.90;4.00;;;;;;;;;;4976245;28;20039;-70
2023/07/12 02:55:40;;;;;;;11.95;3.42;;;;;;;;;;5008561;28;20035;-70
2023/07/12 02:58:06;;;;;;;26.92;4.85;;;;;;;;;;4976556;28;20440;-70
2023/07/12 03:00:31;;;;;;;10.60;3.28;;;;;;;;;;4975902;28;20566;-70
2023/07/12 03:02:56;;;;;;;8.13;3.80;;;;;;;;;;4975631;28;20073;-70
2023/07/12 03:05:22;;;;;;;9.95;4.18;;;;;;;;;;4976989;28;20054;-70
2023/07/12 03:07:47;;;;;;;10.70;4.20;;;;;;;;;;4976214;28;20105;-70
2023/07/12 03:10:13;;;;;;;15.15;3.08;;;;;;;;;;4976384;28;20038;-70
2023/07/12 03:12:38;;;;;;;6.97;3.28;;;;;;;;;;4975601;28;20039;-70
2023/07/12 03:15:04;;;;;;;11.57;3.67;;;;;;;;;;4976484;28;20043;-70
2023/07/12 03:17:29;;;;;;;14.88;3.70;;;;;;;;;;4976879;28;20618;-70
2023/07/12 03:19:54;;;;;;;12.00;3.45;;;;;;;;;;4976224;28;20495;-70
2023/07/12 03:22:20;;;;;;;10.57;3.90;;;;;;;;;;4976478;28;20114;-70
2023/07/12 03:24:45;;;;;;;8.60;3.10;;;;;;;;;;4975015;28;20042;-70
2023/07/12 03:27:10;;;;;;;8.40;3.20;;;;;;;;;;4976095;28;20093;-70
2023/07/12 03:29:36;;;;;;;7.88;3.13;;;;;;;;;;4976252;28;20062;-70
2023/07/12 03:32:01;;;;;;;9.90;3.58;;;;;;;;;;4975858;28;20046;-70
2023/07/12 03:34:27;;;;;;;12.05;3.78;;;;;;;;;;4976209;28;20038;-70
2023/07/12 03:36:52;;;;;;;8.30;3.47;;;;;;;;;;4976248;28;20031;-70
2023/07/12 03:39:18;;;;;;;12.93;3.97;;;;;;;;;;4976375;28;20622;-70
2023/07/12 03:41:43;;;;;;;15.82;4.57;;;;;;;;;;4976047;28;20049;-70
2023/07/12 03:44:08;;;;;;;11.57;3.72;;;;;;;;;;4974792;28;20046;-70
2023/07/12 03:46:34;;;;;;;15.07;4.30;;;;;;;;;;4976222;28;20399;-70
2023/07/12 03:48:59;;;;;;;14.07;4.68;;;;;;;;;;4975855;28;20380;-70
2023/07/12 03:51:24;;;;;;;11.25;4.22;;;;;;;;;;4975861;28;20407;-70
2023/07/12 03:53:50;;;;;;;11.43;4.30;;;;;;;;;;4975162;28;20054;-70
2023/07/12 03:56:15;;;;;;;11.75;4.40;;;;;;;;;;4975971;28;20042;-70
2023/07/12 03:58:40;;;;;;;14.23;4.03;;;;;;;;;;4975849;28;20064;-70
2023/07/12 04:01:09;;;;;;;9.75;3.47;;;;;;;;;;4975504;28;20459;-71
2023/07/12 04:03:35;;;;;;;10.63;3.35;;;;;;;;;;4973489;28;20403;-70
2023/07/12 04:06:03;;;;;;;8.25;3.33;;;;;;;;;;4976327;28;20038;-70
2023/07/12 04:08:28;;;;;;;9.13;3.22;;;;;;;;;;4975423;28;20046;-70
2023/07/12 04:10:54;;;;;;;6.15;2.70;;;;;;;;;;4975844;28;20382;-70
2023/07/12 04:13:21;;;;;;;10.15;3.50;;;;;;;;;;4966409;28;20038;-70
2023/07/12 04:15:46;;;;;;;6.80;2.67;;;;;;;;;;4975151;28;20042;-70
2023/07/12 04:18:11;;;;;;;6.85;2.70;;;;;;;;;;4974952;28;20035;-70
2023/07/12 04:20:40;;;;;;;8.20;2.97;;;;;;;;;;4975598;28;20050;-70
2023/07/12 04:23:06;;;;;;;12.27;2.95;;;;;;;;;;4975087;28;20125;-70
2023/07/12 04:25:32;;;;;;;6.25;2.40;;;;;;;;;;4971027;28;20109;-70
2023/07/12 04:27:58;;;;;;;5.82;2.97;;;;;;;;;;4973955;28;20057;-70
2023/07/12 04:30:23;;;;;;;6.18;2.65;;;;;;;;;;4973764;28;20035;-70
2023/07/12 04:32:51;;;;;;;5.18;2.67;;;;;;;;;;4975398;28;20038;-70
2023/07/12 04:35:17;;;;;;;4.70;2.42;;;;;;;;;;4975113;28;20049;-70
2023/07/12 04:37:49;;;;;;;8.63;2.70;;;;;;;;;;4973962;28;20046;-70
2023/07/12 04:40:16;;;;;;;5.80;2.72;;;;;;;;;;4975022;28;20030;-70
2023/07/12 04:42:42;;;;;;;7.60;2.75;;;;;;;;;;4973781;28;20395;-70
2023/07/12 04:45:09;;;;;;;6.90;2.80;;;;;;;;;;4973421;28;20034;-70
2023/07/12 04:47:35;;;;;;;4.75;2.55;;;;;;;;;;4975238;28;20472;-70
2023/07/12 04:50:00;;;;;;;7.88;2.78;;;;;;;;;;4974722;28;20053;-70
2023/07/12 04:52:25;;;;;;;8.55;3.20;;;;;;;;;;4975034;28;20371;-70
2023/07/12 04:54:55;;;;;;;4.45;2.10;;;;;;;;;;4974857;28;20031;-70
2023/07/12 04:57:21;;;;;;;6.55;2.80;;;;;;;;;;4974502;28;20475;-70
2023/07/12 04:59:46;;;;;;;5.20;2.58;;;;;;;;;;4974068;28;20050;-70
2023/07/12 05:02:11;;;;;;;7.95;2.08;;;;;;;;;;4974865;28;20043;-70
2023/07/12 05:04:37;;;;;;;13.18;2.10;;;;;;;;;;4974590;28;20034;-70
2023/07/12 05:07:03;;;;;;;6.82;2.03;;;;;;;;;;4975071;28;20088;-70
2023/07/12 05:09:28;;;;;;;6.18;1.90;;;;;;;;;;4974251;28;20117;-70
2023/07/12 05:11:54;;;;;;;7.15;1.63;;;;;;;;;;4974918;28;20074;-70
2023/07/12 05:14:19;;;;;;;3.70;1.88;;;;;;;;;;4974195;28;20498;-70
2023/07/12 05:16:45;;;;;;;143.73;6.57;;;;;;;;;;4974495;28;20471;-71
2023/07/12 05:19:11;;;;;;;102.70;5.88;;;;;;;;;;4974367;28;20431;-71
2023/07/12 05:21:36;;;;;;;136.32;7.95;;;;;;;;;;4974680;28;20053;-70
2023/07/12 05:24:02;;;;;;;56.28;3.53;;;;;;;;;;4973925;28;20041;-70
2023/07/12 05:26:27;;;;;;;147.48;8.07;;;;;;;;;;4974144;28;20040;-70
2023/07/12 05:28:52;;;;;;;103.53;5.75;;;;;;;;;;4973915;28;20038;-71
2023/07/12 05:31:18;;;;;;;139.43;7.10;;;;;;;;;;4974161;28;20041;-71
2023/07/12 05:33:46;;;;;;;2.08;0.98;;;;;;;;;;4974373;28;20483;-71
2023/07/12 05:36:12;;;;;;;5.75;1.40;;;;;;;;;;4974364;28;20035;-71
2023/07/12 05:38:37;;;;;;;9.30;1.42;;;;;;;;;;4974228;28;20074;-71
2023/07/12 05:41:03;;;;;;;3.05;1.00;;;;;;;;;;4974426;28;20399;-71
2023/07/12 05:43:28;;;;;;;3.70;1.10;;;;;;;;;;4972803;28;20066;-70
2023/07/12 05:45:56;;;;;;;1.80;1.00;;;;;;;;;;4974621;28;20098;-71
2023/07/12 05:48:22;;;;;;;2.13;0.95;;;;;;;;;;4973890;28;20038;-71
2023/07/12 05:50:51;;;;;;;3.47;1.10;;;;;;;;;;4974282;28;20427;-71
2023/07/12 05:53:16;;;;;;;2.00;1.30;;;;;;;;;;4973917;28;20046;-71
2023/07/12 05:55:41;;;;;;;2.08;1.00;;;;;;;;;;4974188;28;20031;-71
2023/07/12 05:58:06;;;;;;;4.57;0.93;;;;;;;;;;4972581;28;20043;-71
2023/07/12 06:00:32;;;;;;;2.08;0.93;;;;;;;;;;4973462;28;20046;-71
2023/07/12 06:02:57;;;;;;;7.50;1.00;;;;;;;;;;4973953;28;20122;-72
2023/07/12 06:05:22;;;;;;;4.55;1.00;;;;;;;;;;4974202;28;20471;-72
2023/07/12 06:07:48;;;;;;;2.90;1.27;;;;;;;;;;4972637;28;20034;-71
2023/07/12 06:10:15;;;;;;;3.00;0.85;;;;;;;;;;4973955;28;20062;-68
2023/07/12 06:12:41;;;;;;;4.03;1.25;;;;;;;;;;4973795;28;20043;-71
2023/07/12 06:15:07;;;;;;;7.50;1.10;;;;;;;;;;4974009;28;20117;-71
2023/07/12 06:17:32;;;;;;;5.05;1.20;;;;;;;;;;4977526;28;20039;-71
2023/07/12 06:19:58;;;;;;;4.18;0.85;;;;;;;;;;4977458;28;20109;-71
2023/07/12 06:22:23;;;;;;;5.97;0.98;;;;;;;;;;4976108;28;20030;-71
2023/07/12 06:24:49;;;;;;;5.60;1.08;;;;;;;;;;4977228;28;20049;-71
2023/07/12 06:27:14;;;;;;;3.20;1.15;;;;;;;;;;4975771;28;20046;-71
2023/07/12 06:29:41;;;;;;;2.97;1.08;;;;;;;;;;4976759;28;20034;-71
2023/07/12 06:32:08;;;;;;;2.20;1.00;;;;;;;;;;4977179;28;20039;-71
2023/07/12 06:34:33;;;;;;;4.50;1.00;;;;;;;;;;4975109;28;20046;-72
2023/07/12 06:36:59;;;;;;;2.13;1.05;;;;;;;;;;4977478;28;20034;-72
2023/07/12 06:39:24;;;;;;;3.92;0.93;;;;;;;;;;4977604;28;20030;-72
2023/07/12 06:41:49;;;;;;;2.63;1.00;;;;;;;;;;4977342;28;20051;-72
2023/07/12 06:44:15;;;;;;;2.38;0.98;;;;;;;;;;4977456;28;20450;-72
2023/07/12 06:46:40;;;;;;;2.63;1.08;;;;;;;;;;4977302;28;20434;-72
2023/07/12 06:49:05;;;;;;;4.80;1.33;;;;;;;;;;4977034;28;20042;-71
2023/07/12 06:51:31;;;;;;;4.47;1.10;;;;;;;;;;4977151;28;20031;-72
2023/07/12 06:53:57;;;;;;;5.10;1.13;;;;;;;;;;4976839;28;20055;-70
2023/07/12 06:56:23;;;;;;;5.05;1.15;;;;;;;;;;4976803;28;20437;-71
2023/07/12 06:58:48;;;;;;;4.10;1.10;;;;;;;;;;4976189;28;20031;-72
2023/07/12 07:01:13;;;;;;;7.10;1.13;;;;;;;;;;4977059;28;20047;-72
2023/07/12 07:03:39;;;;;;;3.50;1.20;;;;;;;;;;4976931;28;20043;-72
2023/07/12 07:06:04;;;;;;;3.33;1.17;;;;;;;;;;4974600;28;20050;-72
2023/07/12 07:08:30;;;;;;;5.68;1.05;;;;;;;;;;4977171;28;20438;-69
2023/07/12 07:10:56;;;;;;;4.93;1.40;;;;;;;;;;4976009;28;20077;-70
2023/07/12 07:13:22;;;;;;;6.35;1.35;;;;;;;;;;4975536;28;20031;-72
2023/07/12 07:15:48;;;;;;;4.70;1.70;;;;;;;;;;4977012;28;20122;-72
2023/07/12 07:18:14;;;;;;;4.90;1.10;;;;;;;;;;4976040;28;20035;-70
2023/07/12 07:20:40;;;;;;;5.40;1.30;;;;;;;;;;4976800;28;20041;-70
2023/07/12 07:23:06;;;;;;;4.00;1.48;;;;;;;;;;4975653;28;20042;-70
2023/07/12 07:25:31;;;;;;;5.25;1.60;;;;;;;;;;4970429;28;20047;-70
2023/07/12 07:27:57;;;;;;;4.82;1.23;;;;;;;;;;4974173;28;20050;-70
2023/07/12 07:30:22;;;;;;;4.05;1.20;;;;;;;;;;4976664;28;20035;-70
2023/07/12 07:32:48;;;;;;;6.18;1.17;;;;;;;;;;4976489;28;20102;-70
2023/07/12 07:35:13;;;;;;;4.65;1.17;;;;;;;;;;4968500;28;21074;-72
2023/07/12 07:37:39;;;;;;;4.72;1.30;;;;;;;;;;4975807;28;20472;-72
2023/07/12 07:40:07;;;;;;;4.45;1.20;;;;;;;;;;4975775;28;20465;-72
2023/07/12 07:42:32;;;;;;;9.80;1.50;;;;;;;;;;4974666;28;20042;-72
2023/07/12 07:44:58;;;;;;;7.55;1.30;;;;;;;;;;4974908;28;20038;-72
2023/07/12 07:47:23;;;;;;;5.82;1.45;;;;;;;;;;4974490;28;20046;-71
2023/07/12 07:49:48;;;;;;;10.60;1.65;;;;;;;;;;4975877;28;20039;-71
2023/07/12 07:52:14;;;;;;;7.45;1.67;;;;;;;;;;4975930;28;20109;-71
2023/07/12 07:54:39;;;;;;;9.07;1.77;;;;;;;;;;4977124;28;20160;-71
2023/07/12 07:57:06;;;;;;;7.70;2.33;;;;;;;;;;4985806;28;20061;-71
2023/07/12 07:59:31;;;;;;;8.25;1.50;;;;;;;;;;4970216;28;20596;-71
2023/07/12 08:01:58;;;;;;;10.75;1.73;;;;;;;;;;4974622;28;20053;-71
2023/07/12 08:04:23;;;;;;;7.93;1.63;;;;;;;;;;4974761;28;20030;-71
2023/07/12 08:06:50;;;;;;;8.70;1.67;;;;;;;;;;4975198;28;20038;-71
2023/07/12 08:09:15;;;;;;;7.70;1.70;;;;;;;;;;4973644;28;20491;-71
2023/07/12 08:11:41;;;;;;;9.02;2.00;;;;;;;;;;4974360;28;20081;-71
2023/07/12 08:14:07;;;;;;;6.72;1.42;;;;;;;;;;4974591;28;20031;-71
2023/07/12 08:16:35;;;;;;;6.65;1.55;;;;;;;;;;4975467;28;20042;-71
2023/07/12 08:19:02;;;;;;;10.05;1.65;;;;;;;;;;4973247;28;20042;-71
2023/07/12 08:21:28;;;;;;;6.97;1.80;;;;;;;;;;4974684;28;20395;-71
2023/07/12 08:23:54;;;;;;;7.07;1.48;;;;;;;;;;4973322;28;20041;-71
2023/07/12 08:26:19;;;;;;;5.75;1.67;;;;;;;;;;4974397;28;20054;-71
2023/07/12 08:28:45;;;;;;;8.15;1.60;;;;;;;;;;4975018;28;20038;-71
2023/07/12 08:31:10;;;;;;;8.80;2.25;;;;;;;;;;4981002;28;20078;-71
2023/07/12 08:33:36;;;;;;;9.23;1.65;;;;;;;;;;4974234;28;20459;-71
2023/07/12 08:36:01;;;;;;;6.35;1.55;;;;;;;;;;4975441;28;20419;-71
2023/07/12 08:38:31;;;;;;;8.80;1.80;;;;;;;;;;4973196;28;20063;-71
2023/07/12 08:40:57;;;;;;;6.20;2.05;;;;;;;;;;4973251;28;20030;-71
2023/07/12 08:43:29;;;;;;;8.32;1.60;;;;;;;;;;4973494;28;20471;-71
2023/07/12 08:45:56;;;;;;;8.02;1.48;;;;;;;;;;4968309;28;20041;-71
2023/07/12 08:48:23;;;;;;;6.75;1.80;;;;;;;;;;4963952;28;20023;-72
2023/07/12 08:50:49;;;;;;;3.60;1.40;;;;;;;;;;4968359;28;20041;-71
2023/07/12 08:53:23;;;;;;;6.07;1.55;;;;;;;;;;4972137;28;20057;-71
2023/07/12 08:55:49;;;;;;;5.60;1.40;;;;;;;;;;4973241;28;20089;-71
2023/07/12 08:58:33;;;;;;;10.13;1.88;;;;;;;;;;4973877;28;20065;-71
2023/07/12 09:01:02;;;;;;;6.85;2.20;;;;;;;;;;4973288;28;20050;-71
2023/07/12 09:03:27;;;;;;;6.93;1.50;;;;;;;;;;4974200;28;20047;-71
2023/07/12 09:05:53;;;;;;;5.03;1.30;;;;;;;;;;4972976;28;20097;-70
2023/07/12 09:08:22;;;;;;;5.25;1.23;;;;;;;;;;4953545;28;20035;-71
2023/07/12 09:10:50;;;;;;;7.03;1.60;;;;;;;;;;4969576;28;20046;-71
2023/07/12 09:13:16;;;;;;;5.25;1.63;;;;;;;;;;4970154;28;20118;-71
2023/07/12 09:15:48;;;;;;;7.40;1.70;;;;;;;;;;4961811;28;20081;-70
2023/07/12 09:18:28;;;;;;;3.95;1.13;;;;;;;;;;4963111;28;20053;-71
2023/07/12 09:20:56;;;;;;;4.00;1.08;;;;;;;;;;4970967;28;20748;-71
2023/07/12 09:23:21;;;;;;;6.63;1.65;;;;;;;;;;4969899;28;20138;-71
2023/07/12 09:25:53;;;;;;;5.07;1.80;;;;;;;;;;4970657;28;20109;-71
2023/07/12 09:28:19;;;;;;;6.93;1.40;;;;;;;;;;4971154;28;20070;-71
2023/07/12 09:30:44;;;;;;;8.27;1.80;;;;;;;;;;4970510;28;20043;-71
2023/07/12 09:33:18;;;;;;;8.60;1.83;;;;;;;;;;4962981;28;20043;-71
2023/07/12 09:35:45;;;;;;;7.63;1.58;;;;;;;;;;4969555;28;20035;-71
2023/07/12 09:38:23;;;;;;;4.03;1.40;;;;;;;;;;4970590;28;20128;-71
2023/07/12 09:40:51;;;;;;;6.88;1.40;;;;;;;;;;4969650;28;20395;-71
2023/07/12 09:43:22;;;;;;;6.85;1.48;;;;;;;;;;4962631;28;20039;-71
2023/07/12 09:46:00;;;;;;;5.53;1.38;;;;;;;;;;4969628;28;20505;-71
2023/07/12 09:48:26;;;;;;;6.03;1.40;;;;;;;;;;4978040;28;20035;-71
2023/07/12 09:51:23;;;;;;;4.90;1.23;;;;;;;;;;4969566;28;20109;-71
2023/07/12 09:53:53;;;;;;;5.07;1.40;;;;;;;;;;4972427;28;20546;-71
2023/07/12 09:56:29;;;;;;;4.95;1.30;;;;;;;;;;4962954;28;20471;-71
2023/07/12 09:59:03;;;;;;;5.47;1.48;;;;;;;;;;4971888;28;20097;-71
2023/07/12 10:01:37;;;;;;;7.43;1.65;;;;;;;;;;4969607;28;20565;-71
2023/07/12 10:04:35;;;;;;;6.80;1.63;;;;;;;;;;4973718;28;20038;-71
2023/07/12 10:07:09;;;;;;;4.68;1.25;;;;;;;;;;4970548;28;20118;-71
2023/07/12 10:09:36;;;;;;;6.28;1.35;;;;;;;;;;4972050;28;20038;-71
2023/07/12 10:12:13;;;;;;;7.88;1.30;;;;;;;;;;4969588;28;20051;-71
2023/07/12 10:14:40;;;;;;;5.03;1.77;;;;;;;;;;4972643;28;20153;-71
2023/07/12 10:17:12;;;;;;;5.20;1.13;;;;;;;;;;4971851;28;20511;-71
2023/07/12 10:19:38;;;;;;;5.30;1.37;;;;;;;;;;4972383;28;20038;-71
2023/07/12 10:22:13;;;;;;;4.25;1.40;;;;;;;;;;4971955;28;20050;-71
2023/07/12 10:24:44;;;;;;;7.63;1.33;;;;;;;;;;4972182;28;20038;-71
2023/07/12 10:27:29;;;;;;;7.97;1.50;;;;;;;;;;4971626;28;20038;-71
2023/07/12 10:29:58;;;;;;;4.03;1.25;;;;;;;;;;4972653;28;20070;-71
2023/07/12 10:32:27;;;;;;;5.68;1.30;;;;;;;;;;4959009;28;20039;-71
2023/07/12 10:35:31;;;;;;;6.75;1.30;;;;;;;;;;4971450;28;20138;-71
2023/07/12 10:38:04;;;;;;;7.32;1.73;;;;;;;;;;4986204;28;20038;-71
2023/07/12 10:40:35;;;;;;;7.82;1.30;;;;;;;;;;4952758;28;20038;-71
2023/07/12 10:43:04;;;;;;;4.68;1.40;;;;;;;;;;4970481;28;20090;-71
2023/07/12 10:45:33;;;;;;;4.45;1.42;;;;;;;;;;4971249;28;20035;-71
2023/07/12 10:47:59;;;;;;;4.82;1.30;;;;;;;;;;4972476;28;20027;-70
2023/07/12 10:50:44;;;;;;;3.38;1.05;;;;;;;;;;4964255;28;20062;-70
2023/07/12 10:53:22;;;;;;;5.68;1.10;;;;;;;;;;4963328;28;20098;-70
2023/07/12 10:56:05;;;;;;;6.88;1.40;;;;;;;;;;4971257;28;20471;-71
2023/07/12 10:59:01;;;;;;;6.55;1.23;;;;;;;;;;4971712;28;20082;-70
2023/07/12 11:01:40;;;;;;;6.00;1.13;;;;;;;;;;4970720;28;20050;-71
2023/07/12 11:04:09;;;;;;;5.25;1.40;;;;;;;;;;4972402;28;20383;-70
2023/07/12 11:06:35;;;;;;;5.20;1.30;;;;;;;;;;4972175;28;20097;-71
2023/07/12 11:09:00;;;;;;;8.35;1.30;;;;;;;;;;4971099;28;20046;-71
2023/07/12 11:11:32;;;;;;;7.75;1.50;;;;;;;;;;4972540;28;20074;-70
2023/07/12 11:14:17;;;;;;;6.38;1.38;;;;;;;;;;4971356;28;20837;-70
2023/07/12 11:16:51;;;;;;;5.32;1.42;;;;;;;;;;4960336;28;20042;-70
2023/07/12 11:19:33;;;;;;;6.03;1.30;;;;;;;;;;4971254;28;20046;-70
2023/07/12 11:22:08;;;;;;;4.78;1.30;;;;;;;;;;4962708;28;20047;-71
2023/07/12 11:24:39;;;;;;;6.93;1.40;;;;;;;;;;4970770;28;20049;-70
2023/07/12 11:27:09;;;;;;;6.35;1.50;;;;;;;;;;4972036;28;20046;-71
2023/07/12 11:29:36;;;;;;;3.88;1.20;;;;;;;;;;4968515;28;20394;-70
2023/07/12 11:32:14;;;;;;;4.95;1.50;;;;;;;;;;4952611;28;20435;-70
2023/07/12 11:34:40;;;;;;;4.10;1.17;;;;;;;;;;4971429;28;20050;-70
2023/07/12 11:37:15;;;;;;;4.93;1.73;;;;;;;;;;4972142;28;20761;-70
2023/07/12 11:39:44;;;;;;;4.28;1.15;;;;;;;;;;4967091;28;20051;-70
2023/07/12 11:42:27;;;;;;;6.35;1.52;;;;;;;;;;4971631;28;20062;-70
2023/07/12 11:45:00;;;;;;;8.75;1.70;;;;;;;;;;4971875;28;20058;-70
2023/07/12 11:47:26;;;;;;;10.20;2.28;;;;;;;;;;4971907;28;20043;-70
2023/07/12 11:49:55;;;;;;;11.80;1.70;;;;;;;;;;4969751;28;20445;-70
2023/07/12 11:52:21;;;;;;;4.43;1.42;;;;;;;;;;4967259;28;20049;-70
2023/07/12 11:54:47;;;;;;;6.95;1.60;;;;;;;;;;4971920;28;20039;-71
2023/07/12 11:57:13;;;;;;;6.00;1.50;;;;;;;;;;4955418;28;20043;-70
2023/07/12 11:59:41;;;;;;;5.03;1.70;;;;;;;;;;4971402;28;20161;-70
2023/07/12 12:02:14;;;;;;;5.85;1.60;;;;;;;;;;4970371;28;20039;-71
2023/07/12 12:04:39;;;;;;;7.40;1.50;;;;;;;;;;4967371;28;20034;-70
2023/07/12 12:07:20;;;;;;;3.55;1.50;;;;;;;;;;4971470;28;20050;-70
2023/07/12 12:09:46;;;;;;;3.45;1.60;;;;;;;;;;4957759;28;20053;-70
2023/07/12 12:12:16;;;;;;;8.48;2.00;;;;;;;;;;4971192;28;20036;-70
2023/07/12 12:14:41;;;;;;;8.32;1.88;;;;;;;;;;4969046;28;20899;-71
2023/07/12 12:17:15;;;;;;;5.40;1.60;;;;;;;;;;4972116;28;20554;-71
2023/07/12 12:19:41;;;;;;;10.95;1.80;;;;;;;;;;4959873;28;20035;-70
2023/07/12 12:22:18;;;;;;;5.10;1.60;;;;;;;;;;4968664;28;20065;-71
2023/07/12 12:24:49;;;;;;;4.93;1.52;;;;;;;;;;4971933;28;20491;-70
2023/07/12 12:27:21;;;;;;;4.82;1.60;;;;;;;;;;4966041;28;20105;-71
2023/07/12 12:29:46;;;;;;;7.95;1.42;;;;;;;;;;4966194;28;20049;-70
2023/07/12 12:32:16;;;;;;;7.97;1.92;;;;;;;;;;4962094;28;20035;-71
2023/07/12 12:34:47;;;;;;;3.92;1.10;;;;;;;;;;4969015;28;20573;-71
2023/07/12 12:37:29;;;;;;;7.40;1.35;;;;;;;;;;4967912;28;20089;-71
2023/07/12 12:40:02;;;;;;;3.85;1.38;;;;;;;;;;4989545;28;20051;-71
2023/07/12 12:42:28;;;;;;;;;;;;;;;;;;4967491;28;20038;-71
2023/07/12 12:44:55;;;;;;;3.92;1.35;;;;;;;;;;4971959;28;19919;-71
2023/07/12 12:47:30;;;;;;;4.18;1.23;;;;;;;;;;4966330;28;20049;-71
2023/07/12 12:49:56;;;;;;;3.08;1.00;;;;;;;;;;4962156;28;20047;-71
2023/07/12 12:52:27;;;;;;;3.22;1.00;;;;;;;;;;4963250;28;20038;-71
2023/07/12 12:54:55;;;;;;;7.72;1.20;;;;;;;;;;4964619;28;20038;-71
2023/07/12 12:57:20;;;;;;;5.30;1.20;;;;;;;;;;4969605;28;20039;-71
2023/07/12 12:59:48;;;;;;;3.92;1.10;;;;;;;;;;4971003;28;20059;-71
2023/07/12 13:02:15;;;;;;;4.20;1.30;;;;;;;;;;4968749;28;20046;-71
2023/07/12 13:04:41;;;;;;;7.60;1.38;;;;;;;;;;4970849;28;20121;-71
2023/07/12 13:07:18;;;;;;;4.28;1.00;;;;;;;;;;4970788;28;20118;-71
2023/07/12 13:09:43;;;;;;;4.25;1.13;;;;;;;;;;4969471;28;20085;-71
2023/07/12 13:12:21;;;;;;;7.35;1.45;;;;;;;;;;4970707;28;20042;-71
2023/07/12 13:14:46;;;;;;;5.45;1.30;;;;;;;;;;4969944;28;20093;-71
2023/07/12 13:17:24;;;;;;;2.90;1.17;;;;;;;;;;4970811;28;20379;-70
2023/07/12 13:19:51;;;;;;;3.45;1.23;;;;;;;;;;4966613;28;20042;-71
2023/07/12 13:22:20;;;;;;;5.32;1.60;;;;;;;;;;4970622;28;20495;-70
2023/07/12 13:24:45;;;;;;;3.00;1.15;;;;;;;;;;4970370;28;20027;-71
2023/07/12 13:27:16;;;;;;;5.40;1.33;;;;;;;;;;4970792;28;20097;-71
2023/07/12 13:29:44;;;;;;;6.45;1.30;;;;;;;;;;4970664;28;20043;-71
2023/07/12 13:32:11;;;;;;;4.13;1.17;;;;;;;;;;4970360;28;20058;-70
2023/07/12 13:34:36;;;;;;;4.50;1.17;;;;;;;;;;4970972;28;20479;-71
2023/07/12 13:37:02;;;;;;;4.38;1.30;;;;;;;;;;4970698;28;20037;-71
2023/07/12 13:39:30;;;;;;;2.88;1.13;;;;;;;;;;4962219;28;20027;-71
2023/07/12 13:41:56;;;;;;;6.82;1.30;;;;;;;;;;4969654;28;20399;-71
2023/07/12 13:44:23;;;;;;;5.03;1.15;;;;;;;;;;4967664;28;20034;-71
2023/07/12 13:46:48;;;;;;;4.32;1.45;;;;;;;;;;4969682;28;20073;-71
2023/07/12 13:49:14;;;;;;;5.80;1.20;;;;;;;;;;4968407;28;20491;-71
2023/07/12 13:51:40;;;;;;;4.43;0.90;;;;;;;;;;4968966;28;20045;-70
2023/07/12 13:54:06;;;;;;;4.50;1.17;;;;;;;;;;4968224;28;20129;-71
2023/07/12 13:56:32;;;;;;;4.93;1.27;;;;;;;;;;4969440;28;20038;-71
2023/07/12 13:58:57;;;;;;;3.60;0.93;;;;;;;;;;4968927;28;20038;-71
2023/07/12 14:01:25;;;;;;;7.43;1.38;;;;;;;;;;4970063;28;20446;-71
2023/07/12 14:03:51;;;;;;;5.05;1.10;;;;;;;;;;4970125;28;20126;-71
2023/07/12 14:06:16;;;;;;;3.15;1.00;;;;;;;;;;4966829;28;20189;-71
2023/07/12 14:08:41;;;;;;;3.55;1.10;;;;;;;;;;4969119;28;20062;-71
2023/07/12 14:11:28;;;;;;;5.00;1.20;;;;;;;;;;4969844;28;20487;-71
2023/07/12 14:13:54;;;;;;;6.72;1.27;;;;;;;;;;4990798;28;20045;-71
2023/07/12 14:16:21;;;;;;;5.90;1.30;;;;;;;;;;4968521;28;20092;-71
2023/07/12 14:18:46;;;;;;;7.65;1.38;;;;;;;;;;4967270;28;20367;-71
2023/07/12 14:21:13;;;;;;;7.45;1.40;;;;;;;;;;4969793;28;20111;-70
2023/07/12 14:23:40;;;;;;;5.75;1.17;;;;;;;;;;4967815;28;20050;-70
2023/07/12 14:26:05;;;;;;;5.45;1.38;;;;;;;;;;4968753;28;20488;-71
2023/07/12 14:28:31;;;;;;;5.80;2.20;;;;;;;;;;4968707;28;20054;-70
2023/07/12 14:30:56;;;;;;;5.30;1.48;;;;;;;;;;4969239;28;20042;-70
2023/07/12 14:33:34;;;;;;;6.53;1.30;;;;;;;;;;4969484;28;20089;-71
2023/07/12 14:36:00;;;;;;;4.20;1.60;;;;;;;;;;4953901;28;20074;-70
2023/07/12 14:38:26;;;;;;;8.93;1.40;;;;;;;;;;4971829;28;20042;-70
2023/07/12 14:40:52;;;;;;;5.85;1.35;;;;;;;;;;4973131;28;20039;-70
2023/07/12 14:43:17;;;;;;;8.35;1.17;;;;;;;;;;4971302;28;20050;-71
2023/07/12 14:45:42;;;;;;;7.45;1.75;;;;;;;;;;4973168;28;20118;-70